createdAt,value
2023-02-11T00:00:42.879Z,89.60
2023-02-11T00:03:11.128Z,89.75
2023-02-11T00:05:39.447Z,89.72
2023-02-11T00:08:07.420Z,89.37
2023-02-11T00:10:35.468Z,89.33
2023-02-11T00:13:03.572Z,89.60
2023-02-11T00:15:31.545Z,89.28
2023-02-11T00:18:00.973Z,89.88
2023-02-11T00:20:28.951Z,89.92
2023-02-11T00:22:57.000Z,89.66
2023-02-11T00:25:24.976Z,89.14
2023-02-11T00:27:52.949Z,88.60
2023-02-11T00:30:21.144Z,88.74
2023-02-11T00:32:49.253Z,89.24
2023-02-11T00:35:18.856Z,89.23
2023-02-11T00:37:46.851Z,88.30
2023-02-11T00:40:16.061Z,88.81
2023-02-11T00:42:44.142Z,88.41
2023-02-11T00:45:12.128Z,88.39
2023-02-11T00:47:40.179Z,88.48
2023-02-11T00:50:09.053Z,88.47
2023-02-11T00:52:38.569Z,88.62
2023-02-11T00:55:07.765Z,88.98
2023-02-11T00:57:35.841Z,88.96
2023-02-11T01:00:04.260Z,89.84
2023-02-11T01:02:32.291Z,89.26
2023-02-11T01:05:03.421Z,89.65
2023-02-11T01:07:31.610Z,89.16
2023-02-11T01:10:01.080Z,89.76
2023-02-11T01:12:29.184Z,90.22
2023-02-11T01:14:57.299Z,90.57
2023-02-11T01:17:25.378Z,91.30
2023-02-11T01:19:53.375Z,90.51
2023-02-11T01:22:21.403Z,90.17
2023-02-11T01:24:49.703Z,90.01
2023-02-11T01:27:19.183Z,90.22
2023-02-11T01:29:47.227Z,89.38
2023-02-11T01:32:15.372Z,89.16
2023-02-11T01:34:43.512Z,89.09
2023-02-11T01:37:11.599Z,89.26
2023-02-11T01:39:39.952Z,89.26
2023-02-11T01:42:08.469Z,88.69
2023-02-11T01:44:41.273Z,88.92
2023-02-11T01:47:09.804Z,88.81
2023-02-11T01:49:42.697Z,88.76
2023-02-11T01:52:13.659Z,89.20
2023-02-11T01:55:03.104Z,89.02
2023-02-11T01:57:33.581Z,89.33
2023-02-11T02:00:11.432Z,89.66
2023-02-11T02:02:45.393Z,90.13
2023-02-11T02:05:24.135Z,90.17
2023-02-11T02:08:00.251Z,90.70
2023-02-11T02:10:30.286Z,90.72
2023-02-11T02:12:58.788Z,90.61
2023-02-11T02:15:31.020Z,90.54
2023-02-11T02:18:10.215Z,90.41
2023-02-11T02:21:14.195Z,90.72
2023-02-11T02:24:17.730Z,90.26
2023-02-11T02:27:04.794Z,89.74
2023-02-11T02:30:16.998Z,89.45
2023-02-11T02:32:54.642Z,88.95
2023-02-11T02:35:34.741Z,89.50
2023-02-11T02:38:06.363Z,89.31
2023-02-11T02:40:40.085Z,88.98
2023-02-11T02:43:11.895Z,89.02
2023-02-11T02:45:40.068Z,89.61
2023-02-11T02:48:26.031Z,90.26
2023-02-11T02:51:01.987Z,91.29
2023-02-11T02:53:41.393Z,90.57
2023-02-11T02:56:14.408Z,90.63
2023-02-11T02:59:02.458Z,90.42
2023-02-11T03:01:39.123Z,90.66
2023-02-11T03:04:19.065Z,90.36
2023-02-11T03:06:54.204Z,90.10
2023-02-11T03:09:28.185Z,89.72
2023-02-11T03:11:56.854Z,89.92
2023-02-11T03:14:28.238Z,89.66
2023-02-11T03:16:58.829Z,89.47
2023-02-11T03:19:31.748Z,89.55
2023-02-11T03:22:00.507Z,89.33
2023-02-11T03:24:32.179Z,89.33
2023-02-11T03:27:06.504Z,89.33
2023-02-11T03:29:37.933Z,89.07
2023-02-11T03:32:16.182Z,88.96
2023-02-11T03:34:49.428Z,89.51
2023-02-11T03:37:21.072Z,88.86
2023-02-11T03:39:54.889Z,89.25
2023-02-11T03:42:25.774Z,88.03
2023-02-11T03:44:59.524Z,88.58
2023-02-11T03:47:31.281Z,88.37
2023-02-11T03:50:02.197Z,88.21
2023-02-11T03:52:31.672Z,88.41
2023-02-11T03:55:04.038Z,88.53
2023-02-11T03:57:34.285Z,88.15
2023-02-11T04:00:02.520Z,87.85
2023-02-11T04:02:33.190Z,87.76
2023-02-11T04:05:03.160Z,87.59
2023-02-11T04:07:31.105Z,87.97
2023-02-11T04:09:59.209Z,87.38
2023-02-11T04:12:27.553Z,87.27
2023-02-11T04:14:55.663Z,87.25
2023-02-11T04:17:23.685Z,87.59
2023-02-11T04:19:51.660Z,87.93
2023-02-11T04:22:21.126Z,88.59
2023-02-11T04:24:49.141Z,88.67
2023-02-11T04:27:17.205Z,89.12
2023-02-11T04:29:45.426Z,89.85
2023-02-11T04:32:13.734Z,90.02
2023-02-11T04:34:41.787Z,89.89
2023-02-11T04:37:09.895Z,89.83
2023-02-11T04:39:39.405Z,89.89
2023-02-11T04:42:07.664Z,89.82
2023-02-11T04:44:35.717Z,89.41
2023-02-11T04:47:03.770Z,89.59
2023-02-11T04:49:32.234Z,89.12
2023-02-11T04:52:00.506Z,88.76
2023-02-11T04:54:28.744Z,88.02
2023-02-11T04:56:58.256Z,88.20
2023-02-11T04:59:26.264Z,89.12
2023-02-11T05:01:54.320Z,88.68
2023-02-11T05:04:22.709Z,89.53
2023-02-11T05:06:50.943Z,89.16
2023-02-11T05:09:18.955Z,90.10
2023-02-11T05:11:47.067Z,89.93
2023-02-11T05:14:16.580Z,89.86
2023-02-11T05:16:44.721Z,90.31
2023-02-11T05:19:12.762Z,90.95
2023-02-11T05:21:53.111Z,91.11
2023-02-11T05:24:24.949Z,90.23
2023-02-11T05:26:53.084Z,89.83
2023-02-11T05:29:22.655Z,90.54
2023-02-11T05:31:50.776Z,90.60
2023-02-11T05:34:18.802Z,90.13
2023-02-11T05:36:46.901Z,89.76
2023-02-11T05:39:15.039Z,89.39
2023-02-11T05:41:43.109Z,89.35
2023-02-11T05:44:11.285Z,89.87
2023-02-11T05:46:40.830Z,89.29
2023-02-11T05:49:08.963Z,89.24
2023-02-11T05:51:37.025Z,89.52
2023-02-11T05:54:05.184Z,89.50
2023-02-11T05:56:33.265Z,89.26
2023-02-11T05:59:01.416Z,89.82
2023-02-11T06:01:29.503Z,89.07
2023-02-11T06:03:59.106Z,89.26
2023-02-11T06:06:27.233Z,88.79
2023-02-11T06:08:56.472Z,88.86
2023-02-11T06:11:24.636Z,88.67
2023-02-11T06:13:52.746Z,88.02
2023-02-11T06:16:20.756Z,87.65
2023-02-11T06:18:48.863Z,87.65
2023-02-11T06:21:18.331Z,86.89
2023-02-11T06:23:46.425Z,86.64
2023-02-11T06:26:19.238Z,86.87
2023-02-11T06:28:47.488Z,86.78
2023-02-11T06:31:15.927Z,87.32
2023-02-11T06:33:44.112Z,86.81
2023-02-11T06:36:16.090Z,86.68
2023-02-11T06:38:46.302Z,86.49
2023-02-11T06:41:15.767Z,86.26
2023-02-11T06:43:44.541Z,86.00
2023-02-11T06:46:12.721Z,86.98
2023-02-11T06:48:43.069Z,87.62
2023-02-11T06:51:14.868Z,87.61
2023-02-11T06:53:46.250Z,87.99
2023-02-11T06:56:19.106Z,88.44
2023-02-11T06:58:47.814Z,88.59
2023-02-11T07:01:17.714Z,88.50
2023-02-11T07:03:47.046Z,88.14
2023-02-11T07:06:17.567Z,88.28
2023-02-11T07:08:47.648Z,88.43
2023-02-11T07:11:17.950Z,88.11
2023-02-11T07:13:46.457Z,88.20
2023-02-11T07:16:16.828Z,88.27
2023-02-11T07:18:45.553Z,88.16
2023-02-11T07:21:15.338Z,88.09
2023-02-11T07:23:43.389Z,87.57
2023-02-11T07:26:16.028Z,86.55
2023-02-11T07:28:44.929Z,86.29
2023-02-11T07:31:15.495Z,85.82
2023-02-11T07:33:45.910Z,85.81
2023-02-11T07:36:16.433Z,85.55
2023-02-11T07:38:45.356Z,85.37
2023-02-11T07:41:17.265Z,85.53
2023-02-11T07:43:45.786Z,84.62
2023-02-11T07:46:15.869Z,83.86
2023-02-11T07:48:44.221Z,83.87
2023-02-11T07:51:14.620Z,83.51
2023-02-11T07:53:42.726Z,82.70
2023-02-11T07:56:12.288Z,83.07
2023-02-11T07:58:43.182Z,83.13
2023-02-11T08:01:14.012Z,82.63
2023-02-11T08:03:42.955Z,82.30
2023-02-11T08:06:12.750Z,82.06
2023-02-11T08:08:41.674Z,81.69
2023-02-11T08:11:10.653Z,81.74
2023-02-11T08:13:38.874Z,81.64
2023-02-11T08:16:11.788Z,81.60
2023-02-11T08:18:39.781Z,81.33
2023-02-11T08:21:09.420Z,81.33
2023-02-11T08:23:38.568Z,80.96
2023-02-11T08:26:07.811Z,80.76
2023-02-11T08:28:40.009Z,80.87
2023-02-11T08:31:11.269Z,80.63
2023-02-11T08:33:40.988Z,80.34
2023-02-11T08:36:13.024Z,79.72
2023-02-11T08:38:41.217Z,78.19
2023-02-11T08:41:09.938Z,77.14
2023-02-11T08:43:41.712Z,76.10
2023-02-11T08:46:14.517Z,76.53
2023-02-11T08:48:42.650Z,75.59
2023-02-11T08:51:12.761Z,76.16
2023-02-11T08:53:40.996Z,75.32
2023-02-11T08:56:13.502Z,75.97
2023-02-11T08:58:41.942Z,74.96
2023-02-11T09:01:16.349Z,74.83
2023-02-11T09:03:44.604Z,74.58
2023-02-11T09:06:13.929Z,74.08
2023-02-11T09:08:46.360Z,73.93
2023-02-11T09:11:15.141Z,72.94
2023-02-11T09:13:44.527Z,72.70
2023-02-11T09:16:19.364Z,72.47
2023-02-11T09:18:47.936Z,71.97
2023-02-11T09:21:17.398Z,72.28
2023-02-11T09:23:47.796Z,71.44
2023-02-11T09:26:19.737Z,71.52
2023-02-11T09:28:48.620Z,71.69
2023-02-11T09:31:21.153Z,71.12
2023-02-11T09:33:51.721Z,70.88
2023-02-11T09:36:21.760Z,70.69
2023-02-11T09:38:50.432Z,71.00
2023-02-11T09:41:37.052Z,70.97
2023-02-11T09:44:08.735Z,69.24
2023-02-11T09:46:42.513Z,68.58
2023-02-11T09:49:19.386Z,68.25
2023-02-11T09:51:50.855Z,68.07
2023-02-11T09:54:24.649Z,68.12
2023-02-11T09:56:52.889Z,66.83
2023-02-11T09:59:21.068Z,66.25
2023-02-11T10:01:54.576Z,65.72
2023-02-11T10:04:36.345Z,66.05
2023-02-11T10:07:12.827Z,63.77
2023-02-11T10:10:02.928Z,63.51
2023-02-11T10:12:44.876Z,62.05
2023-02-11T10:15:22.802Z,62.20
2023-02-11T10:18:08.772Z,59.91
2023-02-11T10:20:39.616Z,59.16
2023-02-11T10:23:15.062Z,58.65
2023-02-11T10:25:45.951Z,58.12
2023-02-11T10:28:17.082Z,57.34
2023-02-11T10:30:51.123Z,56.68
2023-02-11T10:33:25.885Z,56.32
2023-02-11T10:35:54.125Z,56.86
2023-02-11T10:38:22.237Z,56.10
2023-02-11T10:40:50.713Z,56.45
2023-02-11T10:43:22.577Z,56.29
2023-02-11T10:45:53.006Z,55.64
2023-02-11T10:48:42.911Z,54.31
2023-02-11T10:51:19.875Z,54.77
2023-02-11T10:53:49.183Z,54.95
2023-02-11T10:56:24.857Z,54.34
2023-02-11T10:58:58.902Z,54.45
2023-02-11T11:01:41.179Z,54.47
2023-02-11T11:04:40.878Z,54.29
2023-02-11T11:07:19.200Z,54.58
2023-02-11T11:09:52.394Z,54.26
2023-02-11T11:12:48.834Z,52.87
2023-02-11T11:15:22.103Z,53.33
2023-02-11T11:17:50.634Z,53.38
2023-02-11T11:20:36.308Z,53.30
2023-02-11T11:23:18.124Z,54.07
2023-02-11T11:25:59.468Z,53.82
2023-02-11T11:28:30.864Z,54.05
2023-02-11T11:31:01.089Z,53.61
2023-02-11T11:33:31.504Z,52.86
2023-02-11T11:36:06.096Z,53.46
2023-02-11T11:38:36.248Z,53.45
2023-02-11T11:41:18.928Z,52.90
2023-02-11T11:43:58.040Z,53.03
2023-02-11T11:46:28.938Z,52.29
2023-02-11T11:49:04.782Z,51.47
2023-02-11T11:51:36.191Z,51.40
2023-02-11T11:54:08.017Z,51.46
2023-02-11T11:56:40.832Z,51.91
2023-02-11T11:59:16.651Z,51.39
2023-02-11T12:02:03.244Z,50.76
2023-02-11T12:04:57.682Z,50.81
2023-02-11T12:07:42.858Z,51.06
2023-02-11T12:10:32.908Z,50.93
2023-02-11T12:13:13.259Z,50.64
2023-02-11T12:15:50.862Z,50.67
2023-02-11T12:18:38.767Z,50.44
2023-02-11T12:21:34.022Z,49.41
2023-02-11T12:24:19.033Z,49.48
2023-02-11T12:26:53.684Z,48.82
2023-02-11T12:29:33.297Z,48.29
2023-02-11T12:32:16.305Z,47.86
2023-02-11T12:35:13.550Z,47.36
2023-02-11T12:37:58.002Z,47.55
2023-02-11T12:40:37.435Z,47.37
2023-02-11T12:43:16.655Z,47.87
2023-02-11T12:46:29.123Z,46.46
2023-02-11T12:49:20.831Z,46.57
2023-02-11T12:52:01.656Z,45.96
2023-02-11T12:54:33.211Z,45.86
2023-02-11T12:57:11.295Z,45.09
2023-02-11T12:59:50.728Z,44.89
2023-02-11T13:02:31.775Z,43.06
2023-02-11T13:05:05.369Z,41.89
2023-02-11T13:07:39.535Z,40.13
2023-02-11T13:10:28.120Z,38.82
2023-02-11T13:13:18.152Z,37.96
2023-02-11T13:15:52.095Z,37.51
2023-02-11T13:18:45.975Z,36.19
2023-02-11T13:21:47.982Z,35.25
2023-02-11T13:24:28.978Z,35.16
2023-02-11T13:27:08.332Z,36.16
2023-02-11T13:30:04.384Z,35.76
2023-02-11T13:33:06.652Z,35.84
2023-02-11T13:35:36.201Z,36.59
2023-02-11T13:38:06.278Z,37.19
2023-02-11T13:40:36.640Z,37.55
2023-02-11T13:43:07.236Z,37.89
2023-02-11T13:45:42.587Z,38.01
2023-02-11T13:48:20.806Z,38.34
2023-02-11T13:50:52.391Z,38.18
2023-02-11T13:53:21.657Z,37.45
2023-02-11T13:55:52.575Z,37.71
2023-02-11T13:58:37.275Z,36.06
2023-02-11T14:01:07.264Z,35.88
2023-02-11T14:03:55.386Z,35.43
2023-02-11T14:06:43.665Z,35.61
2023-02-11T14:09:40.154Z,34.98
2023-02-11T14:12:36.205Z,34.30
2023-02-11T14:15:28.729Z,35.04
2023-02-11T14:17:58.162Z,34.89
2023-02-11T14:20:44.626Z,33.98
2023-02-11T14:23:25.696Z,34.27
2023-02-11T14:26:07.037Z,34.57
2023-02-11T14:28:36.141Z,35.47
2023-02-11T14:31:11.665Z,35.83
2023-02-11T14:34:23.975Z,37.32
2023-02-11T14:37:07.280Z,39.23
2023-02-11T14:39:49.587Z,40.90
2023-02-11T14:42:21.065Z,42.11
2023-02-11T14:44:51.847Z,43.48
2023-02-11T14:47:23.789Z,44.48
2023-02-11T14:49:52.086Z,45.36
2023-02-11T14:52:28.857Z,46.34
2023-02-11T14:55:07.301Z,47.43
2023-02-11T14:57:35.378Z,48.58
2023-02-11T15:00:06.133Z,49.11
2023-02-11T15:02:36.690Z,49.80
2023-02-11T15:05:20.164Z,50.65
2023-02-11T15:07:52.962Z,51.34
2023-02-11T15:10:28.308Z,51.65
2023-02-11T15:12:57.306Z,51.82
2023-02-11T15:15:25.431Z,52.38
2023-02-11T15:17:54.170Z,53.06
2023-02-11T15:20:27.060Z,52.98
2023-02-11T15:23:00.949Z,53.27
2023-02-11T15:25:31.261Z,53.94
2023-02-11T15:28:01.213Z,54.28
2023-02-11T15:30:34.093Z,54.38
2023-02-11T15:33:05.600Z,55.37
2023-02-11T15:35:36.702Z,55.70
2023-02-11T15:38:08.014Z,56.56
2023-02-11T15:40:38.444Z,56.88
2023-02-11T15:43:08.261Z,57.44
2023-02-11T15:45:39.680Z,57.76
2023-02-11T15:48:11.591Z,57.86
2023-02-11T15:50:42.194Z,58.62
2023-02-11T15:53:31.197Z,59.51
2023-02-11T15:56:11.168Z,59.18
2023-02-11T15:58:40.132Z,59.61
2023-02-11T16:01:09.667Z,60.58
2023-02-11T16:03:37.969Z,61.36
2023-02-11T16:06:21.486Z,62.14
2023-02-11T16:09:02.705Z,62.72
2023-02-11T16:11:33.152Z,63.03
2023-02-11T16:14:03.689Z,64.07
2023-02-11T16:16:35.956Z,64.70
2023-02-11T16:19:06.284Z,65.64
2023-02-11T16:21:39.144Z,65.78
2023-02-11T16:24:18.720Z,66.63
2023-02-11T16:26:50.080Z,67.54
2023-02-11T16:29:22.089Z,67.74
2023-02-11T16:31:51.143Z,68.08
2023-02-11T16:34:21.097Z,68.57
2023-02-11T16:36:49.921Z,67.66
2023-02-11T16:39:22.493Z,68.23
2023-02-11T16:41:52.089Z,68.95
2023-02-11T16:44:20.632Z,68.68
2023-02-11T16:46:49.281Z,69.05
2023-02-11T16:49:21.728Z,69.95
2023-02-11T16:51:52.613Z,69.79
2023-02-11T16:54:22.285Z,69.20
2023-02-11T16:57:03.002Z,69.89
2023-02-11T16:59:31.031Z,69.67
2023-02-11T17:01:59.350Z,69.97
2023-02-11T17:04:30.921Z,70.76
2023-02-11T17:06:59.039Z,71.81
2023-02-11T17:09:31.093Z,71.72
2023-02-11T17:12:00.257Z,72.59
2023-02-11T17:14:28.486Z,72.77
2023-02-11T17:16:56.547Z,72.44
2023-02-11T17:19:25.108Z,72.59
2023-02-11T17:21:53.961Z,73.49
2023-02-11T17:24:22.982Z,72.79
2023-02-11T17:26:52.363Z,72.62
2023-02-11T17:29:22.302Z,72.80
2023-02-11T17:31:51.667Z,72.77
2023-02-11T17:34:20.675Z,72.98
2023-02-11T17:36:48.800Z,73.02
2023-02-11T17:39:17.424Z,72.98
2023-02-11T17:41:45.541Z,73.06
2023-02-11T17:44:16.481Z,73.17
2023-02-11T17:46:44.813Z,73.96
2023-02-11T17:49:13.253Z,73.15
2023-02-11T17:51:41.291Z,73.67
2023-02-11T17:54:12.060Z,73.75
2023-02-11T17:56:40.643Z,73.19
2023-02-11T17:59:09.785Z,73.04
2023-02-11T18:01:41.340Z,72.46
2023-02-11T18:04:11.846Z,72.55
2023-02-11T18:06:40.655Z,73.15
2023-02-11T18:09:10.915Z,72.72
2023-02-11T18:11:45.626Z,73.30
2023-02-11T18:14:16.930Z,73.31
2023-02-11T18:16:47.561Z,74.48
2023-02-11T18:19:15.710Z,74.03
2023-02-11T18:21:43.794Z,74.65
2023-02-11T18:24:11.942Z,75.36
2023-02-11T18:26:41.731Z,75.56
2023-02-11T18:29:10.242Z,75.00
2023-02-11T18:31:39.547Z,74.70
2023-02-11T18:34:10.715Z,74.62
2023-02-11T18:36:38.911Z,74.33
2023-02-11T18:39:07.308Z,74.25
2023-02-11T18:41:35.336Z,74.20
2023-02-11T18:44:04.624Z,74.42
2023-02-11T18:46:32.802Z,74.71
2023-02-11T18:49:00.915Z,75.10
2023-02-11T18:51:32.416Z,75.42
2023-02-11T18:54:01.354Z,75.54
2023-02-11T18:56:29.487Z,75.85
2023-02-11T18:59:01.261Z,76.17
2023-02-11T19:01:31.246Z,76.60
2023-02-11T19:04:02.973Z,77.07
2023-02-11T19:06:34.224Z,76.94
2023-02-11T19:09:05.459Z,76.88
2023-02-11T19:11:50.483Z,76.34
2023-02-11T19:14:22.036Z,76.36
2023-02-11T19:16:51.420Z,76.15
2023-02-11T19:19:20.352Z,75.62
2023-02-11T19:21:49.922Z,74.78
2023-02-11T19:24:19.947Z,74.47
2023-02-11T19:26:49.156Z,74.21
2023-02-11T19:29:17.694Z,74.70
2023-02-11T19:31:46.548Z,74.25
2023-02-11T19:34:19.933Z,73.80
2023-02-11T19:36:50.434Z,73.74
2023-02-11T19:39:18.660Z,72.69
2023-02-11T19:41:46.774Z,72.75
2023-02-11T19:44:16.239Z,71.82
2023-02-11T19:46:44.279Z,72.09
2023-02-11T19:49:15.546Z,70.96
2023-02-11T19:51:43.553Z,71.18
2023-02-11T19:54:12.951Z,70.27
2023-02-11T19:56:40.963Z,69.06
2023-02-11T19:59:09.136Z,68.48
2023-02-11T20:01:37.917Z,67.87
2023-02-11T20:04:06.464Z,67.27
2023-02-11T20:06:36.191Z,66.44
2023-02-11T20:09:07.384Z,65.36
2023-02-11T20:11:38.177Z,65.42
2023-02-11T20:14:06.921Z,64.65
2023-02-11T20:16:47.379Z,64.35
2023-02-11T20:19:18.522Z,63.78
2023-02-11T20:21:48.334Z,64.55
2023-02-11T20:24:16.691Z,64.80
2023-02-11T20:26:48.163Z,65.93
2023-02-11T20:29:16.655Z,65.94
2023-02-11T20:31:44.875Z,66.62
2023-02-11T20:34:13.156Z,67.98
2023-02-11T20:36:41.902Z,67.66
2023-02-11T20:39:17.148Z,69.05
2023-02-11T20:41:47.375Z,68.94
2023-02-11T20:44:15.770Z,69.67
2023-02-11T20:46:47.910Z,69.75
2023-02-11T20:49:18.938Z,70.45
2023-02-11T20:51:49.265Z,69.92
2023-02-11T20:54:19.165Z,70.08
2023-02-11T20:56:50.753Z,70.44
2023-02-11T20:59:19.342Z,69.96
2023-02-11T21:01:49.479Z,70.77
2023-02-11T21:04:19.771Z,70.29
2023-02-11T21:06:50.907Z,70.30
2023-02-11T21:09:20.980Z,70.72
2023-02-11T21:11:52.007Z,70.96
2023-02-11T21:14:22.283Z,71.00
2023-02-11T21:16:50.428Z,70.95
2023-02-11T21:19:18.586Z,70.25
2023-02-11T21:21:47.105Z,70.90
2023-02-11T21:24:15.446Z,70.41
2023-02-11T21:26:43.846Z,70.48
2023-02-11T21:29:13.659Z,70.74
2023-02-11T21:31:41.801Z,71.14
2023-02-11T21:34:11.178Z,70.79
2023-02-11T21:36:39.288Z,71.46
2023-02-11T21:39:07.370Z,70.88
2023-02-11T21:41:35.597Z,71.55
2023-02-11T21:44:03.719Z,71.74
2023-02-11T21:46:33.667Z,71.26
2023-02-11T21:49:01.828Z,71.92
2023-02-11T21:51:30.465Z,71.51
2023-02-11T21:53:59.856Z,72.04
2023-02-11T21:56:29.163Z,72.07
2023-02-11T21:58:58.885Z,72.58
2023-02-11T22:01:30.846Z,73.21
2023-02-11T22:04:00.491Z,73.38
2023-02-11T22:06:31.627Z,73.33
2023-02-11T22:09:02.725Z,73.22
2023-02-11T22:11:31.071Z,73.86
2023-02-11T22:13:59.324Z,73.52
2023-02-11T22:16:28.784Z,73.87
2023-02-11T22:18:58.996Z,73.20
2023-02-11T22:21:28.681Z,73.19
2023-02-11T22:23:57.348Z,72.85
2023-02-11T22:26:27.055Z,73.31
2023-02-11T22:28:55.646Z,73.75
2023-02-11T22:31:25.840Z,74.38
2023-02-11T22:33:54.228Z,74.38
2023-02-11T22:36:24.086Z,74.49
2023-02-11T22:38:54.506Z,74.10
2023-02-11T22:41:24.019Z,74.43
2023-02-11T22:43:52.235Z,74.80
2023-02-11T22:46:21.020Z,74.35
2023-02-11T22:48:49.962Z,74.52
2023-02-11T22:51:20.638Z,74.23
2023-02-11T22:53:54.409Z,74.41
2023-02-11T22:56:22.809Z,74.55
2023-02-11T22:58:53.301Z,74.74
2023-02-11T23:01:21.393Z,74.24
2023-02-11T23:03:49.892Z,73.94
2023-02-11T23:06:18.156Z,73.74
2023-02-11T23:08:46.767Z,73.01
2023-02-11T23:11:18.671Z,71.82
2023-02-11T23:13:48.388Z,71.87
2023-02-11T23:16:18.507Z,71.33
2023-02-11T23:18:48.129Z,71.02
2023-02-11T23:21:21.131Z,70.83
2023-02-11T23:23:50.779Z,69.67
2023-02-11T23:26:20.336Z,69.77
2023-02-11T23:28:48.734Z,70.09
2023-02-11T23:31:19.523Z,69.65
2023-02-11T23:33:49.510Z,69.80
2023-02-11T23:36:19.071Z,70.61
2023-02-11T23:38:47.345Z,71.20
2023-02-11T23:41:16.210Z,71.47
2023-02-11T23:43:51.079Z,71.18
2023-02-11T23:46:19.893Z,71.67
2023-02-11T23:48:48.021Z,71.39
2023-02-11T23:51:16.648Z,71.43
2023-02-11T23:53:45.943Z,71.99
2023-02-11T23:56:17.284Z,71.89
2023-02-11T23:58:49.469Z,72.48
